Time;durP1;ratioP1;P1;durP2;ratioP2;P2;SDS_P1;SDS_P2;PMS_P1;PMS_P2;Temp;Humidity;BMP_temperature;BMP_pressure;BME280_temperature;BME280_humidity;BME280_pressure;Samples;Min_cycle;Max_cycle;Signal;HPM_P1;HPM_P2
2023/04/25 00:01:37;;;;;;;14.48;4.65;;;;;;;;;;5051106;28;20132;-88
2023/04/25 00:04:05;;;;;;;18.63;5.93;;;;;;;;;;5051007;28;20131;-87
2023/04/25 00:06:32;;;;;;;16.35;4.80;;;;;;;;;;5051169;28;20051;-86
2023/04/25 00:08:57;;;;;;;13.70;5.22;;;;;;;;;;5062940;28;20512;-87
2023/04/25 00:11:32;;;;;;;14.48;5.22;;;;;;;;;;5056847;28;20048;-89
2023/04/25 00:13:59;;;;;;;13.40;5.18;;;;;;;;;;5056060;28;20050;-88
2023/04/25 00:16:25;;;;;;;18.05;5.40;;;;;;;;;;5074321;28;20040;-87
2023/04/25 00:18:53;;;;;;;15.45;5.57;;;;;;;;;;5038830;28;20052;-86
2023/04/25 00:21:19;;;;;;;13.27;5.00;;;;;;;;;;5056982;28;20574;-86
2023/04/25 00:23:45;;;;;;;16.73;5.47;;;;;;;;;;5057109;28;20037;-86
2023/04/25 00:26:11;;;;;;;23.42;5.30;;;;;;;;;;5057068;28;20041;-87
2023/04/25 00:28:37;;;;;;;15.98;5.35;;;;;;;;;;5057150;28;20044;-87
2023/04/25 00:31:03;;;;;;;23.42;5.10;;;;;;;;;;5056242;28;20041;-86
2023/04/25 00:33:29;;;;;;;23.10;5.80;;;;;;;;;;5056744;28;20524;-86
2023/04/25 00:35:55;;;;;;;18.02;5.57;;;;;;;;;;5065743;28;20044;-86
2023/04/25 00:38:20;;;;;;;20.92;4.97;;;;;;;;;;5073725;28;20079;-86
2023/04/25 00:40:46;;;;;;;20.83;5.88;;;;;;;;;;5056692;28;20484;-87
2023/04/25 00:43:12;;;;;;;18.90;5.32;;;;;;;;;;5057057;28;20622;-85
2023/04/25 00:45:39;;;;;;;17.83;5.10;;;;;;;;;;5059582;28;20515;-88
2023/04/25 00:48:05;;;;;;;17.33;5.38;;;;;;;;;;5076224;28;20051;-87
2023/04/25 00:50:30;;;;;;;19.77;5.10;;;;;;;;;;5053302;28;20045;-88
2023/04/25 00:52:56;;;;;;;13.32;5.55;;;;;;;;;;5070039;28;20127;-87
2023/04/25 00:55:21;;;;;;;18.50;5.40;;;;;;;;;;5043087;28;20064;-88
2023/04/25 00:57:47;;;;;;;14.23;5.15;;;;;;;;;;5054227;28;20047;-86
2023/04/25 01:00:14;;;;;;;15.43;5.40;;;;;;;;;;5076528;28;20098;-88
2023/04/25 01:02:41;;;;;;;13.90;4.88;;;;;;;;;;5077277;28;20041;-87
2023/04/25 01:05:08;;;;;;;16.63;4.75;;;;;;;;;;5076369;28;20040;-87
2023/04/25 01:07:34;;;;;;;13.45;4.40;;;;;;;;;;5077318;28;20361;-86
2023/04/25 01:09:59;;;;;;;11.48;4.40;;;;;;;;;;5057513;28;20044;-86
2023/04/25 01:12:25;;;;;;;13.75;4.45;;;;;;;;;;5059742;28;20501;-84
2023/04/25 01:14:50;;;;;;;11.23;4.65;;;;;;;;;;5062163;28;20500;-86
2023/04/25 01:17:17;;;;;;;14.40;4.60;;;;;;;;;;5070520;28;20049;-88
2023/04/25 01:19:43;;;;;;;12.32;4.13;;;;;;;;;;5067886;28;20033;-85
2023/04/25 01:22:10;;;;;;;16.73;4.00;;;;;;;;;;5059135;28;20068;-85
2023/04/25 01:24:36;;;;;;;14.75;4.25;;;;;;;;;;5057136;28;20458;-87
2023/04/25 01:27:02;;;;;;;17.50;4.13;;;;;;;;;;5056945;28;20132;-87
2023/04/25 01:29:28;;;;;;;10.80;4.75;;;;;;;;;;5056223;28;20149;-86
2023/04/25 01:31:54;;;;;;;17.50;4.55;;;;;;;;;;5058585;28;20094;-85
2023/04/25 01:34:20;;;;;;;9.60;3.72;;;;;;;;;;5055160;28;20040;-89
2023/04/25 01:36:49;;;;;;;12.98;4.55;;;;;;;;;;5052806;28;20124;-86
2023/04/25 01:39:15;;;;;;;17.63;4.00;;;;;;;;;;5052255;28;20052;-86
2023/04/25 01:41:41;;;;;;;14.48;4.20;;;;;;;;;;5034791;28;20094;-87
2023/04/25 01:44:06;;;;;;;19.08;4.45;;;;;;;;;;5062855;28;20102;-87
2023/04/25 01:46:34;;;;;;;15.65;4.60;;;;;;;;;;5050907;28;20044;-88
2023/04/25 01:49:00;;;;;;;16.83;5.25;;;;;;;;;;5035454;28;20044;-88
2023/04/25 01:51:25;;;;;;;16.33;4.65;;;;;;;;;;5053201;28;20840;-88
2023/04/25 01:53:51;;;;;;;10.70;4.70;;;;;;;;;;5053955;28;20049;-88
2023/04/25 01:56:18;;;;;;;15.95;5.07;;;;;;;;;;5034382;28;20136;-86
2023/04/25 01:58:43;;;;;;;12.00;4.68;;;;;;;;;;5064888;28;20445;-89
2023/04/25 02:01:09;;;;;;;13.73;4.85;;;;;;;;;;5052455;28;20049;-86
2023/04/25 02:03:34;;;;;;;16.15;4.70;;;;;;;;;;5070666;28;20042;-88
2023/04/25 02:06:00;;;;;;;13.02;5.05;;;;;;;;;;5038651;28;20082;-87
2023/04/25 02:08:26;;;;;;;12.07;5.90;;;;;;;;;;5033761;28;20057;-86
2023/04/25 02:10:52;;;;;;;13.35;4.65;;;;;;;;;;5052218;28;20041;-86
2023/04/25 02:13:17;;;;;;;12.65;4.38;;;;;;;;;;5053004;28;20399;-87
2023/04/25 02:15:43;;;;;;;11.82;4.43;;;;;;;;;;5034588;28;20527;-86
2023/04/25 02:18:10;;;;;;;15.02;5.03;;;;;;;;;;5036019;28;20524;-88
2023/04/25 02:20:36;;;;;;;14.20;5.05;;;;;;;;;;5032846;28;20049;-87
2023/04/25 02:23:02;;;;;;;29.13;12.43;;;;;;;;;;5032458;28;20042;-87
2023/04/25 02:25:27;;;;;;;17.52;7.18;;;;;;;;;;5031903;28;20041;-87
2023/04/25 02:27:53;;;;;;;16.45;5.20;;;;;;;;;;5015164;28;20052;-87
2023/04/25 02:30:19;;;;;;;10.30;5.47;;;;;;;;;;5032647;28;20046;-86
2023/04/25 02:32:45;;;;;;;16.50;4.80;;;;;;;;;;5044803;28;20039;-88
2023/04/25 02:35:10;;;;;;;15.98;5.65;;;;;;;;;;5050900;28;20059;-86
2023/04/25 02:37:39;;;;;;;17.80;4.72;;;;;;;;;;5052510;28;20037;-86
2023/04/25 02:40:05;;;;;;;14.50;5.05;;;;;;;;;;5052485;28;20041;-85
2023/04/25 02:42:31;;;;;;;13.93;5.50;;;;;;;;;;5051851;28;20033;-86
2023/04/25 02:44:56;;;;;;;15.20;5.13;;;;;;;;;;5052423;28;20425;-86
2023/04/25 02:47:21;;;;;;;14.27;5.00;;;;;;;;;;5051494;28;20044;-86
2023/04/25 02:49:47;;;;;;;18.05;4.88;;;;;;;;;;5051699;28;20048;-85
2023/04/25 02:52:13;;;;;;;13.32;4.60;;;;;;;;;;5051333;28;20119;-86
2023/04/25 02:54:39;;;;;;;17.83;4.85;;;;;;;;;;5034223;28;20041;-86
2023/04/25 02:57:05;;;;;;;12.30;5.22;;;;;;;;;;5051465;28;20127;-86
2023/04/25 02:59:30;;;;;;;11.27;5.18;;;;;;;;;;5051847;28;20116;-87
2023/04/25 03:01:55;;;;;;;16.70;5.22;;;;;;;;;;5052190;28;20044;-88
2023/04/25 03:04:23;;;;;;;12.48;5.35;;;;;;;;;;5050980;28;20037;-87
2023/04/25 03:06:52;;;;;;;16.20;5.20;;;;;;;;;;5051640;28;20045;-85
2023/04/25 03:09:17;;;;;;;16.98;5.95;;;;;;;;;;5051632;28;20041;-86
2023/04/25 03:11:45;;;;;;;14.45;5.18;;;;;;;;;;5051627;28;20354;-86
2023/04/25 03:14:11;;;;;;;19.93;6.03;;;;;;;;;;5051083;28;20056;-86
2023/04/25 03:16:37;;;;;;;16.25;5.65;;;;;;;;;;5051170;28;20790;-86
2023/04/25 03:19:03;;;;;;;15.70;5.95;;;;;;;;;;5051100;28;20033;-86
2023/04/25 03:21:31;;;;;;;17.25;6.05;;;;;;;;;;5051297;28;20048;-87
2023/04/25 03:23:57;;;;;;;12.75;5.90;;;;;;;;;;5033430;28;20593;-87
2023/04/25 03:26:22;;;;;;;16.48;5.95;;;;;;;;;;5050906;28;20131;-87
2023/04/25 03:28:48;;;;;;;18.55;5.68;;;;;;;;;;5051156;28;20040;-87
2023/04/25 03:31:13;;;;;;;17.20;6.57;;;;;;;;;;5050616;28;20402;-88
2023/04/25 03:33:38;;;;;;;14.50;5.45;;;;;;;;;;5051327;28;20049;-87
2023/04/25 03:36:05;;;;;;;12.73;5.78;;;;;;;;;;5051072;28;20043;-86
2023/04/25 03:38:30;;;;;;;9.77;5.47;;;;;;;;;;5051671;28;20037;-88
2023/04/25 03:40:56;;;;;;;15.10;6.63;;;;;;;;;;5051302;28;20128;-86
2023/04/25 03:43:21;;;;;;;12.05;5.57;;;;;;;;;;5033327;28;20079;-87
2023/04/25 03:45:47;;;;;;;12.98;5.63;;;;;;;;;;5050946;28;20033;-86
2023/04/25 03:48:12;;;;;;;20.08;6.68;;;;;;;;;;5050811;28;20045;-87
2023/04/25 03:50:37;;;;;;;14.48;5.88;;;;;;;;;;5051389;28;20489;-87
2023/04/25 03:53:03;;;;;;;19.27;7.38;;;;;;;;;;5051283;28;20124;-88
2023/04/25 03:55:28;;;;;;;19.42;7.07;;;;;;;;;;5051366;28;20433;-89
2023/04/25 03:57:54;;;;;;;11.80;5.57;;;;;;;;;;5051736;28;20041;-88
2023/04/25 04:00:19;;;;;;;18.33;5.80;;;;;;;;;;5032942;28;20037;-89
2023/04/25 04:02:44;;;;;;;14.40;6.43;;;;;;;;;;5051112;28;20037;-88
2023/04/25 04:05:11;;;;;;;17.80;6.15;;;;;;;;;;5051340;28;20056;-88
2023/04/25 04:07:40;;;;;;;14.25;5.72;;;;;;;;;;5051348;28;20417;-89
2023/04/25 04:10:07;;;;;;;10.90;6.20;;;;;;;;;;5050457;28;20148;-88
2023/04/25 04:12:33;;;;;;;15.80;6.20;;;;;;;;;;5051394;28;20052;-89
2023/04/25 04:14:58;;;;;;;18.15;6.53;;;;;;;;;;5051597;28;20508;-89
2023/04/25 04:17:24;;;;;;;15.45;6.47;;;;;;;;;;5061617;28;20423;-89
2023/04/25 04:19:50;;;;;;;22.38;6.18;;;;;;;;;;5071716;28;20033;-89
2023/04/25 04:22:16;;;;;;;18.10;6.28;;;;;;;;;;5051907;28;20113;-88
2023/04/25 04:24:43;;;;;;;15.70;5.93;;;;;;;;;;5035820;28;20048;-89
2023/04/25 04:27:09;;;;;;;13.15;6.22;;;;;;;;;;5033896;28;20052;-89
2023/04/25 04:29:34;;;;;;;18.80;6.00;;;;;;;;;;5039513;28;20501;-89
2023/04/25 04:32:01;;;;;;;18.33;6.13;;;;;;;;;;5033111;28;20391;-90
2023/04/25 04:34:27;;;;;;;16.98;6.03;;;;;;;;;;5013745;28;20100;-89
2023/04/25 04:36:52;;;;;;;13.32;6.47;;;;;;;;;;5032237;28;20529;-88
2023/04/25 04:39:17;;;;;;;17.10;7.18;;;;;;;;;;5032361;28;20124;-89
2023/04/25 04:41:43;;;;;;;13.73;6.68;;;;;;;;;;5048020;28;20037;-88
2023/04/25 04:44:08;;;;;;;22.98;6.55;;;;;;;;;;5037198;28;20072;-88
2023/04/25 04:46:41;;;;;;;15.35;6.20;;;;;;;;;;5058412;28;20516;-88
2023/04/25 04:49:08;;;;;;;16.42;7.00;;;;;;;;;;5060420;28;20041;-89
2023/04/25 04:51:34;;;;;;;14.65;6.95;;;;;;;;;;5061849;28;20040;-88
2023/04/25 04:54:02;;;;;;;14.82;6.45;;;;;;;;;;5047554;28;20416;-89
2023/04/25 04:56:29;;;;;;;23.75;7.78;;;;;;;;;;5061301;28;20049;-88
2023/04/25 04:58:54;;;;;;;15.68;7.22;;;;;;;;;;5059344;28;20098;-89
2023/04/25 05:01:20;;;;;;;18.77;7.13;;;;;;;;;;5042402;28;20045;-89
2023/04/25 05:03:45;;;;;;;17.80;7.40;;;;;;;;;;5061894;28;20127;-89
2023/04/25 05:06:11;;;;;;;18.08;7.13;;;;;;;;;;5062606;28;20045;-89
2023/04/25 05:08:36;;;;;;;23.02;6.93;;;;;;;;;;5057429;28;20033;-89
2023/04/25 05:11:02;;;;;;;13.45;6.53;;;;;;;;;;5054619;28;20051;-89
2023/04/25 05:13:27;;;;;;;18.40;7.40;;;;;;;;;;5053365;28;20049;-89
2023/04/25 05:15:53;;;;;;;17.58;7.93;;;;;;;;;;5054350;28;20106;-90
2023/04/25 05:18:21;;;;;;;24.70;7.65;;;;;;;;;;5052941;28;20053;-87
2023/04/25 05:20:46;;;;;;;15.98;7.63;;;;;;;;;;5054259;28;20510;-88
2023/04/25 05:23:12;;;;;;;20.55;7.22;;;;;;;;;;5053659;28;20055;-88
2023/04/25 05:25:37;;;;;;;18.35;8.18;;;;;;;;;;5052533;28;20052;-88
2023/04/25 05:28:03;;;;;;;19.60;8.05;;;;;;;;;;5035745;28;20494;-87
2023/04/25 05:30:28;;;;;;;17.42;7.97;;;;;;;;;;5035503;28;20109;-87
2023/04/25 05:32:53;;;;;;;18.13;7.18;;;;;;;;;;5056198;28;20410;-85
2023/04/25 05:35:19;;;;;;;15.15;7.78;;;;;;;;;;5058592;28;20040;-86
2023/04/25 05:37:44;;;;;;;13.82;8.52;;;;;;;;;;5041215;28;20119;-86
2023/04/25 05:40:10;;;;;;;18.35;7.78;;;;;;;;;;5066125;28;20048;-84
2023/04/25 05:42:35;;;;;;;19.52;7.47;;;;;;;;;;5030658;28;20071;-85
2023/04/25 05:45:01;;;;;;;14.32;7.25;;;;;;;;;;5044453;28;20049;-85
2023/04/25 05:47:26;;;;;;;14.55;8.15;;;;;;;;;;5049708;28;20045;-85
2023/04/25 05:49:52;;;;;;;17.30;7.97;;;;;;;;;;5038130;28;20390;-86
2023/04/25 05:52:17;;;;;;;20.08;7.65;;;;;;;;;;5047999;28;20060;-86
2023/04/25 05:54:42;;;;;;;20.20;9.68;;;;;;;;;;5045242;28;20076;-87
2023/04/25 05:57:08;;;;;;;19.35;10.15;;;;;;;;;;5046954;28;20045;-88
2023/04/25 05:59:33;;;;;;;21.25;9.82;;;;;;;;;;5054320;28;20130;-86
2023/04/25 06:01:59;;;;;;;16.85;9.05;;;;;;;;;;5053550;28;20033;-87
2023/04/25 06:04:25;;;;;;;18.20;10.15;;;;;;;;;;5052939;28;20421;-87
2023/04/25 06:06:50;;;;;;;16.05;8.35;;;;;;;;;;5035543;28;20515;-86
2023/04/25 06:09:16;;;;;;;21.50;8.55;;;;;;;;;;5052591;28;20037;-86
2023/04/25 06:11:43;;;;;;;25.50;8.68;;;;;;;;;;5055360;28;20079;-86
2023/04/25 06:14:09;;;;;;;15.70;7.75;;;;;;;;;;5026279;28;20049;-87
2023/04/25 06:16:35;;;;;;;13.65;7.85;;;;;;;;;;5037903;28;20048;-87
2023/04/25 06:19:00;;;;;;;20.15;8.02;;;;;;;;;;5042701;28;20052;-87
2023/04/25 06:21:27;;;;;;;23.23;8.70;;;;;;;;;;5032975;28;20049;-87
2023/04/25 06:23:52;;;;;;;17.50;7.95;;;;;;;;;;5044106;28;20045;-88
2023/04/25 06:26:18;;;;;;;19.40;8.07;;;;;;;;;;5034704;28;20063;-88
2023/04/25 06:28:43;;;;;;;17.52;8.27;;;;;;;;;;5045920;28;20045;-88
2023/04/25 06:31:08;;;;;;;25.73;9.32;;;;;;;;;;5052463;28;20053;-88
2023/04/25 06:33:34;;;;;;;38.08;12.15;;;;;;;;;;5043449;28;20049;-89
2023/04/25 06:35:59;;;;;;;26.92;10.35;;;;;;;;;;5038812;28;20072;-88
2023/04/25 06:38:25;;;;;;;25.35;9.80;;;;;;;;;;5023384;28;20049;-88
2023/04/25 06:40:51;;;;;;;20.65;8.88;;;;;;;;;;5041841;28;20141;-88
2023/04/25 06:43:16;;;;;;;16.60;8.23;;;;;;;;;;5041094;28;20128;-88
2023/04/25 06:45:42;;;;;;;16.33;9.05;;;;;;;;;;5031623;28;20548;-88
2023/04/25 06:48:07;;;;;;;20.85;7.97;;;;;;;;;;5048154;28;20041;-88
2023/04/25 06:50:34;;;;;;;18.95;8.55;;;;;;;;;;5052305;28;20104;-88
2023/04/25 06:53:01;;;;;;;18.35;7.00;;;;;;;;;;5030799;28;20079;-88
2023/04/25 06:55:26;;;;;;;15.73;6.82;;;;;;;;;;5037588;28;20129;-88
2023/04/25 06:57:52;;;;;;;18.85;7.55;;;;;;;;;;5035344;28;20073;-89
2023/04/25 07:00:18;;;;;;;16.45;7.57;;;;;;;;;;5043825;28;20037;-88
2023/04/25 07:02:43;;;;;;;19.50;7.70;;;;;;;;;;5053443;28;20565;-85
2023/04/25 07:05:09;;;;;;;14.65;7.47;;;;;;;;;;5040962;28;20079;-86
2023/04/25 07:07:34;;;;;;;15.88;7.40;;;;;;;;;;5042289;28;20405;-89
2023/04/25 07:10:00;;;;;;;15.52;7.85;;;;;;;;;;5047748;28;20052;-89
2023/04/25 07:12:25;;;;;;;17.92;7.00;;;;;;;;;;5041262;28;20045;-89
2023/04/25 07:14:51;;;;;;;19.85;6.88;;;;;;;;;;5035363;28;20049;-90
2023/04/25 07:17:16;;;;;;;14.32;6.93;;;;;;;;;;5034224;28;20052;-89
2023/04/25 07:19:41;;;;;;;19.40;7.80;;;;;;;;;;5052423;28;20037;-89
2023/04/25 07:22:07;;;;;;;18.77;7.47;;;;;;;;;;5041095;28;20068;-88
2023/04/25 07:24:32;;;;;;;22.58;7.38;;;;;;;;;;5016010;28;20057;-89
2023/04/25 07:26:58;;;;;;;15.43;7.28;;;;;;;;;;5047880;28;20048;-89
2023/04/25 07:29:46;;;;;;;19.10;8.27;;;;;;;;;;5039322;28;20029;-89
2023/04/25 07:32:13;;;;;;;15.80;7.22;;;;;;;;;;5039818;28;20053;-88
2023/04/25 07:34:38;;;;;;;19.20;8.23;;;;;;;;;;5044777;28;20441;-89
2023/04/25 07:37:05;;;;;;;20.02;7.38;;;;;;;;;;5038039;28;20033;-89
2023/04/25 07:39:30;;;;;;;17.08;7.75;;;;;;;;;;5053593;28;20044;-90
2023/04/25 07:41:58;;;;;;;17.35;7.65;;;;;;;;;;5034360;28;20044;-89
2023/04/25 07:44:24;;;;;;;17.73;8.00;;;;;;;;;;5041747;28;20057;-88
2023/04/25 07:46:49;;;;;;;14.45;7.72;;;;;;;;;;5039150;28;20049;-88
2023/04/25 07:49:15;;;;;;;16.60;7.57;;;;;;;;;;5034072;28;20037;-87
2023/04/25 07:51:41;;;;;;;15.18;7.03;;;;;;;;;;5039021;28;20502;-90
2023/04/25 07:54:06;;;;;;;13.68;7.25;;;;;;;;;;5048112;28;20040;-87
2023/04/25 07:56:32;;;;;;;19.23;7.72;;;;;;;;;;5035668;28;20498;-90
2023/04/25 07:58:58;;;;;;;18.48;6.90;;;;;;;;;;5033805;28;20119;-89
2023/04/25 08:01:23;;;;;;;13.23;6.85;;;;;;;;;;5051238;28;20110;-87
2023/04/25 08:03:49;;;;;;;12.63;6.70;;;;;;;;;;5049881;28;20521;-88
2023/04/25 08:06:15;;;;;;;13.32;6.45;;;;;;;;;;5018777;28;20072;-89
2023/04/25 08:08:40;;;;;;;16.48;6.18;;;;;;;;;;5051733;28;20509;-89
2023/04/25 08:11:05;;;;;;;16.30;6.03;;;;;;;;;;5026225;28;20132;-88
2023/04/25 08:13:31;;;;;;;11.63;5.45;;;;;;;;;;5050335;28;20413;-88
2023/04/25 08:15:56;;;;;;;12.73;5.30;;;;;;;;;;5033906;28;20073;-87
2023/04/25 08:18:21;;;;;;;17.23;6.50;;;;;;;;;;5031271;28;20053;-88
2023/04/25 08:20:47;;;;;;;12.30;5.35;;;;;;;;;;5032199;28;20048;-88
2023/04/25 08:23:13;;;;;;;9.02;4.68;;;;;;;;;;5050169;28;20049;-88
2023/04/25 08:25:38;;;;;;;10.50;5.25;;;;;;;;;;5037618;28;20045;-87
2023/04/25 08:28:03;;;;;;;12.85;5.80;;;;;;;;;;5031905;28;20041;-87
2023/04/25 08:30:29;;;;;;;13.95;5.55;;;;;;;;;;5045058;28;20072;-88
2023/04/25 08:32:55;;;;;;;10.30;5.20;;;;;;;;;;5025542;28;20048;-90
2023/04/25 08:35:20;;;;;;;14.18;5.65;;;;;;;;;;5053065;28;20049;-89
2023/04/25 08:37:46;;;;;;;10.38;4.60;;;;;;;;;;5034987;28;20052;-89
2023/04/25 08:40:14;;;;;;;13.57;5.03;;;;;;;;;;5046693;28;20041;-89
2023/04/25 08:42:41;;;;;;;12.73;4.82;;;;;;;;;;5035901;28;20044;-88
2023/04/25 08:45:07;;;;;;;12.48;5.13;;;;;;;;;;5034770;28;20120;-89
2023/04/25 08:47:34;;;;;;;10.95;5.10;;;;;;;;;;5052631;28;20045;-90
2023/04/25 08:50:01;;;;;;;9.43;5.05;;;;;;;;;;5053308;28;20466;-89
2023/04/25 08:52:30;;;;;;;10.40;4.95;;;;;;;;;;5040203;28;20075;-89
2023/04/25 08:54:57;;;;;;;16.42;4.88;;;;;;;;;;5054296;28;20095;-88
2023/04/25 08:57:23;;;;;;;10.80;4.38;;;;;;;;;;5035719;28;20045;-90
2023/04/25 08:59:49;;;;;;;8.55;3.53;;;;;;;;;;5035818;28;20413;-90
2023/04/25 09:02:16;;;;;;;9.15;3.88;;;;;;;;;;5034689;28;20052;-90
2023/04/25 09:04:43;;;;;;;6.65;3.17;;;;;;;;;;5050886;28;20040;-89
2023/04/25 09:07:09;;;;;;;6.15;3.17;;;;;;;;;;5042942;28;20059;-89
2023/04/25 09:09:35;;;;;;;10.27;3.17;;;;;;;;;;5034582;28;20049;-90
2023/04/25 09:12:01;;;;;;;5.43;3.03;;;;;;;;;;5034892;28;20048;-89
2023/04/25 09:14:27;;;;;;;9.18;3.20;;;;;;;;;;5040289;28;20057;-89
2023/04/25 09:16:56;;;;;;;6.95;3.00;;;;;;;;;;5044043;28;20056;-88
2023/04/25 09:19:40;;;;;;;4.80;2.70;;;;;;;;;;5034158;28;20053;-88
2023/04/25 09:22:06;;;;;;;6.93;2.85;;;;;;;;;;5033998;28;20041;-88
2023/04/25 09:24:44;;;;;;;8.45;3.03;;;;;;;;;;5035473;28;20048;-87
2023/04/25 09:27:11;;;;;;;5.13;2.80;;;;;;;;;;5047692;28;20057;-88
2023/04/25 09:29:38;;;;;;;6.93;3.05;;;;;;;;;;5025288;28;20041;-91
2023/04/25 09:32:15;;;;;;;5.72;2.70;;;;;;;;;;5053344;28;20041;-88
2023/04/25 09:34:42;;;;;;;5.95;3.33;;;;;;;;;;5053236;28;20106;-90
2023/04/25 09:37:10;;;;;;;7.45;2.92;;;;;;;;;;5053405;28;20045;-89
2023/04/25 09:39:36;;;;;;;7.82;3.10;;;;;;;;;;5054526;28;20037;-90
2023/04/25 09:42:03;;;;;;;7.25;2.97;;;;;;;;;;5047500;28;20041;-90
2023/04/25 09:44:28;;;;;;;6.22;3.17;;;;;;;;;;5033296;28;20084;-90
2023/04/25 09:46:54;;;;;;;9.02;2.65;;;;;;;;;;5035395;28;20480;-89
2023/04/25 09:49:21;;;;;;;5.72;2.72;;;;;;;;;;5034230;28;20045;-89
2023/04/25 09:51:56;;;;;;;8.48;3.08;;;;;;;;;;5048286;28;20065;-91
2023/04/25 09:54:26;;;;;;;6.68;2.70;;;;;;;;;;5046123;28;20049;-89
2023/04/25 09:56:53;;;;;;;4.50;2.80;;;;;;;;;;5067368;28;20041;-89
2023/04/25 09:59:24;;;;;;;8.00;3.40;;;;;;;;;;5050685;28;20057;-90
2023/04/25 10:01:50;;;;;;;9.52;3.95;;;;;;;;;;5052535;28;20037;-89
2023/04/25 10:04:26;;;;;;;9.27;2.90;;;;;;;;;;5058706;28;20135;-89
2023/04/25 10:06:53;;;;;;;8.32;2.35;;;;;;;;;;5066153;28;20045;-89
2023/04/25 10:09:26;;;;;;;5.40;2.72;;;;;;;;;;5069288;28;20127;-89
2023/04/25 10:11:52;;;;;;;5.70;2.72;;;;;;;;;;5062018;28;20592;-90
2023/04/25 10:14:18;;;;;;;5.32;2.70;;;;;;;;;;5055250;28;20037;-90
2023/04/25 10:16:45;;;;;;;7.25;2.40;;;;;;;;;;5055763;28;20048;-92
2023/04/25 10:19:10;;;;;;;5.85;2.70;;;;;;;;;;5054539;28;20049;-91
2023/04/25 10:21:46;;;;;;;5.70;2.50;;;;;;;;;;5054683;28;20489;-90
2023/04/25 10:24:12;;;;;;;5.32;2.38;;;;;;;;;;5053770;28;20048;-91
2023/04/25 10:26:38;;;;;;;6.50;2.85;;;;;;;;;;5052441;28;20037;-91
2023/04/25 10:29:04;;;;;;;5.88;2.72;;;;;;;;;;5059895;28;20099;-91
2023/04/25 10:31:30;;;;;;;6.53;2.80;;;;;;;;;;5039925;28;20045;-90
2023/04/25 10:33:56;;;;;;;6.47;2.60;;;;;;;;;;5046658;28;20041;-89
2023/04/25 10:36:23;;;;;;;7.40;3.00;;;;;;;;;;5046952;28;20068;-91
2023/04/25 10:38:50;;;;;;;5.28;2.72;;;;;;;;;;5036771;28;20049;-91
2023/04/25 10:41:18;;;;;;;5.35;2.60;;;;;;;;;;5037554;28;20041;-91
2023/04/25 10:43:45;;;;;;;5.03;2.72;;;;;;;;;;5052539;28;20573;-90
2023/04/25 10:46:20;;;;;;;6.32;2.97;;;;;;;;;;5053032;28;20148;-90
2023/04/25 10:48:50;;;;;;;7.03;2.92;;;;;;;;;;5054286;28;20501;-89
2023/04/25 10:51:23;;;;;;;5.65;2.78;;;;;;;;;;5034698;28;20045;-89
2023/04/25 10:53:55;;;;;;;6.10;2.10;;;;;;;;;;5053666;28;20045;-90
2023/04/25 10:56:22;;;;;;;5.07;2.60;;;;;;;;;;5052500;28;20401;-90
2023/04/25 10:58:48;;;;;;;6.40;2.60;;;;;;;;;;5054073;28;20048;-92
2023/04/25 11:01:14;;;;;;;8.00;2.85;;;;;;;;;;5051924;28;20045;-89
2023/04/25 11:03:42;;;;;;;6.38;2.20;;;;;;;;;;5033753;28;20045;-91
2023/04/25 11:06:20;;;;;;;6.63;2.50;;;;;;;;;;5034051;28;20252;-90
2023/04/25 11:08:55;;;;;;;3.97;2.13;;;;;;;;;;5048146;28;20045;-91
2023/04/25 11:11:20;;;;;;;4.05;2.05;;;;;;;;;;5050758;28;20041;-90
2023/04/25 11:13:49;;;;;;;5.10;2.30;;;;;;;;;;5054331;28;20102;-90
2023/04/25 11:16:15;;;;;;;6.15;2.90;;;;;;;;;;5053781;28;20037;-90
2023/04/25 11:18:42;;;;;;;6.40;2.50;;;;;;;;;;5053092;28;20509;-89
2023/04/25 11:21:07;;;;;;;6.97;2.80;;;;;;;;;;5042043;28;20072;-90
2023/04/25 11:23:32;;;;;;;9.55;3.17;;;;;;;;;;5034595;28;20064;-91
2023/04/25 11:26:00;;;;;;;6.75;2.83;;;;;;;;;;5036174;28;20051;-90
2023/04/25 11:28:26;;;;;;;6.95;3.05;;;;;;;;;;5024869;28;20048;-89
2023/04/25 11:30:52;;;;;;;4.55;2.70;;;;;;;;;;5060823;28;20570;-88
2023/04/25 11:33:17;;;;;;;7.18;2.80;;;;;;;;;;5039712;28;20071;-89
2023/04/25 11:35:43;;;;;;;8.02;2.90;;;;;;;;;;5036303;28;20091;-89
2023/04/25 11:38:08;;;;;;;6.78;3.03;;;;;;;;;;5036976;28;20126;-89
2023/04/25 11:40:35;;;;;;;5.57;2.35;;;;;;;;;;5059634;28;20498;-88
2023/04/25 11:43:01;;;;;;;7.35;2.47;;;;;;;;;;5064099;28;20389;-90
2023/04/25 11:45:30;;;;;;;4.00;2.30;;;;;;;;;;5064864;28;20048;-90
2023/04/25 11:47:58;;;;;;;3.20;2.42;;;;;;;;;;5055504;28;20041;-88
2023/04/25 11:50:24;;;;;;;5.38;2.00;;;;;;;;;;5045919;28;20045;-90
2023/04/25 11:52:50;;;;;;;6.00;2.10;;;;;;;;;;5041657;28;20083;-88
2023/04/25 11:55:20;;;;;;;8.77;2.22;;;;;;;;;;5038394;28;20041;-88
2023/04/25 11:57:51;;;;;;;6.22;2.05;;;;;;;;;;5043997;28;20045;-89
2023/04/25 12:00:21;;;;;;;5.00;2.13;;;;;;;;;;5051620;28;20037;-90
2023/04/25 12:02:51;;;;;;;6.93;2.50;;;;;;;;;;5013978;28;20045;-90
2023/04/25 12:05:17;;;;;;;9.60;3.50;;;;;;;;;;5054384;28;20041;-90
2023/04/25 12:07:43;;;;;;;10.57;3.65;;;;;;;;;;5053927;28;20044;-90
2023/04/25 12:10:13;;;;;;;7.57;2.95;;;;;;;;;;5029075;28;20144;-90
2023/04/25 12:12:43;;;;;;;7.35;2.55;;;;;;;;;;5025053;28;20068;-88
2023/04/25 12:15:14;;;;;;;7.00;2.95;;;;;;;;;;5027685;28;20913;-91
2023/04/25 12:17:40;;;;;;;8.20;3.03;;;;;;;;;;5045687;28;20049;-88
2023/04/25 12:20:07;;;;;;;7.05;2.60;;;;;;;;;;5062948;28;20110;-89
2023/04/25 12:22:33;;;;;;;7.18;2.25;;;;;;;;;;5065985;28;20507;-90
2023/04/25 12:24:59;;;;;;;5.82;2.25;;;;;;;;;;5069271;28;20108;-89
2023/04/25 12:27:26;;;;;;;6.60;2.25;;;;;;;;;;5060927;28;20156;-90
2023/04/25 12:29:54;;;;;;;6.80;2.60;;;;;;;;;;5065845;28;20052;-89
2023/04/25 12:32:20;;;;;;;6.70;2.60;;;;;;;;;;5052376;28;20087;-89
2023/04/25 12:34:45;;;;;;;8.98;3.08;;;;;;;;;;5065625;28;20279;-89
2023/04/25 12:37:11;;;;;;;5.53;2.40;;;;;;;;;;5047997;28;20068;-91
2023/04/25 12:39:37;;;;;;;7.00;2.95;;;;;;;;;;5054171;28;20041;-91
2023/04/25 12:42:03;;;;;;;6.90;2.63;;;;;;;;;;5054877;28;20131;-90
2023/04/25 12:44:28;;;;;;;5.88;2.35;;;;;;;;;;5035963;28;20046;-90
2023/04/25 12:47:00;;;;;;;5.60;2.60;;;;;;;;;;5049422;28;20060;-90
2023/04/25 12:49:25;;;;;;;9.07;2.92;;;;;;;;;;5041256;28;20048;-89
2023/04/25 12:51:51;;;;;;;6.25;2.60;;;;;;;;;;5038349;28;20038;-88
2023/04/25 12:54:17;;;;;;;8.68;2.70;;;;;;;;;;5046845;28;20033;-89
2023/04/25 12:56:42;;;;;;;12.00;3.00;;;;;;;;;;5050792;28;20473;-89
2023/04/25 12:59:09;;;;;;;6.50;2.97;;;;;;;;;;5043349;28;20073;-90
2023/04/25 13:01:34;;;;;;;7.97;2.70;;;;;;;;;;5032906;28;20049;-89
2023/04/25 13:04:00;;;;;;;7.78;3.08;;;;;;;;;;5050868;28;20045;-89
2023/04/25 13:06:26;;;;;;;8.73;3.10;;;;;;;;;;5050330;28;20512;-90
2023/04/25 13:08:51;;;;;;;7.90;3.13;;;;;;;;;;5051807;28;20037;-88
2023/04/25 13:11:17;;;;;;;5.57;2.58;;;;;;;;;;5032461;28;20420;-89
2023/04/25 13:13:43;;;;;;;4.30;2.15;;;;;;;;;;5050055;28;20440;-88
2023/04/25 13:16:09;;;;;;;5.03;2.28;;;;;;;;;;5050267;28;20049;-88
2023/04/25 13:18:35;;;;;;;4.93;2.20;;;;;;;;;;5053667;28;20180;-89
2023/04/25 13:21:00;;;;;;;10.15;2.67;;;;;;;;;;5037587;28;20072;-87
2023/04/25 13:23:27;;;;;;;7.05;3.10;;;;;;;;;;5051735;28;20501;-87
2023/04/25 13:25:53;;;;;;;7.07;3.33;;;;;;;;;;5037951;28;20051;-88
2023/04/25 13:28:19;;;;;;;11.00;3.30;;;;;;;;;;5027250;28;20042;-89
2023/04/25 13:30:45;;;;;;;8.68;2.80;;;;;;;;;;5034111;28;20513;-92
2023/04/25 13:33:10;;;;;;;6.68;2.70;;;;;;;;;;5038223;28;20041;-91
2023/04/25 13:35:37;;;;;;;8.70;2.90;;;;;;;;;;5046370;28;20041;-87
2023/04/25 13:38:03;;;;;;;5.50;2.80;;;;;;;;;;5054483;28;20041;-89
2023/04/25 13:40:29;;;;;;;8.95;3.13;;;;;;;;;;5047840;28;20057;-90
2023/04/25 13:42:55;;;;;;;8.57;2.72;;;;;;;;;;5034277;28;20068;-89
2023/04/25 13:45:21;;;;;;;6.00;2.70;;;;;;;;;;5033568;28;20383;-90
2023/04/25 13:47:46;;;;;;;7.45;3.10;;;;;;;;;;5016285;28;20110;-86
2023/04/25 13:50:13;;;;;;;7.95;2.72;;;;;;;;;;5037778;28;20045;-88
2023/04/25 13:52:39;;;;;;;9.05;3.00;;;;;;;;;;5055356;28;20036;-90
2023/04/25 13:55:06;;;;;;;7.28;3.40;;;;;;;;;;5053386;28;20037;-89
2023/04/25 13:57:32;;;;;;;9.07;3.38;;;;;;;;;;5049173;28;20056;-89
2023/04/25 13:59:58;;;;;;;10.77;3.40;;;;;;;;;;5057449;28;20120;-89
2023/04/25 14:02:23;;;;;;;11.25;3.42;;;;;;;;;;5053584;28;20481;-89
2023/04/25 14:04:48;;;;;;;7.38;3.30;;;;;;;;;;5053460;28;20033;-89
2023/04/25 14:07:18;;;;;;;7.85;2.90;;;;;;;;;;5023290;28;20167;-91
2023/04/25 14:09:44;;;;;;;9.07;3.45;;;;;;;;;;5041184;28;20045;-91
2023/04/25 14:12:10;;;;;;;5.30;2.50;;;;;;;;;;5039412;28;20048;-88
2023/04/25 14:14:35;;;;;;;6.65;2.53;;;;;;;;;;5039701;28;20067;-88
2023/04/25 14:17:01;;;;;;;4.47;2.20;;;;;;;;;;5040997;28;20049;-91
2023/04/25 14:19:26;;;;;;;9.70;2.40;;;;;;;;;;5041416;28;20506;-89
2023/04/25 14:21:51;;;;;;;5.47;2.28;;;;;;;;;;5042634;28;20468;-89
2023/04/25 14:24:17;;;;;;;6.40;2.33;;;;;;;;;;5037300;28;21476;-90
2023/04/25 14:26:43;;;;;;;7.90;2.10;;;;;;;;;;5041527;28;20048;-89
2023/04/25 14:29:11;;;;;;;7.20;3.30;;;;;;;;;;5020567;28;20084;-91